• Join FlightAware (Why Join?)
  • Login
  • US Flag 
10:02PM EDT


 

Airport Tracker/Info


-or-


 

Live Flight TrackerFlight Track Log ✈ AAY855 ✈ 03-02-2014 ✈ KSBN - KPIE

Flight Track Log - Related Links

Times and Time Zones

All times are in EST time to prevent confusion due to time zone crossing. See the AAY855 flight status page for this flight to view local times or setup timezone preferences in your user account.

Time Position Orientation Groundspeed Altitude Reporting Facility
EST Latitude Longitude Course Direction KTS MPH feet Rate Location/Type
04:15PM 41.6864 -86.3792 130° Southeast 185 213 2,400  Level Chicago Center
04:16PM 41.6281 -86.3506 160° South 257 296 5,900 3,240 Climbing Chicago Center
04:17PM 41.5833 -86.2664 125° Southeast 274 315 9,100 2,460 Climbing Chicago Center
04:18PM 41.5111 -86.2144 152° Southeast 292 336 11,100 1,380 Climbing Chicago Center
04:19PM 41.4200 -86.1500 152° Southeast 372 428 12,000 2,040 Climbing Chicago Center
04:20PM 41.3025 -86.0667 152° Southeast 401 461 15,400 2,460 Climbing Chicago Center
04:21PM 41.2778 -85.6450 130° Southeast  Level FlightAware Approximate
04:21PM 41.1947 -86.0089 158° South 428 493 17,200  Level Chicago Center
04:23PM 41.0811 -85.9742 167° South 425 489 18,800 1,500 Climbing Chicago Center
04:24PM 40.9603 -85.9569 174° South 437 503 20,400 1,440 Climbing Chicago Center
04:25PM 40.8353 -85.9400 174° South 452 520 21,800 1,620 Climbing Chicago Center
04:26PM 40.6839 -85.9108 172° South 459 528 23,800 1,860 Climbing Chicago Center
04:27PM 40.5683 -85.8858 171° South 470 541 25,700 1,620 Climbing Chicago Center
04:28PM 40.4431 -85.8625 172° South 458 527 27,200 1,680 Climbing Chicago Center
04:28PM 40.3442 -85.8517 175° South 449 517 28,900 1,860 Climbing Indianapolis Center
04:30PM 40.1992 -85.8306 174° South 438 504 30,700 1,500 Climbing Indianapolis Center
04:31PM 40.0808 -85.8089 172° South 431 496 32,000 600 Climbing Indianapolis Center
04:32PM 39.9622 -85.7886 173° South 429 494 32,000  Level Indianapolis Center
04:33PM 39.8461 -85.7944 182° South 417 480 32,000  Level Indianapolis Center
04:34PM 39.7306 -85.8000 182° South 413 475 32,000  Level Indianapolis Center
04:35PM 39.6153 -85.8081 183° South 414 476 32,000  Level Indianapolis Center
04:36PM 39.5006 -85.8122 182° South 410 472 32,000  Level Indianapolis Center
04:37PM 39.3600 -85.8000 176° South 421 484 32,000  Level Indianapolis Center
04:38PM 39.2397 -85.7769 172° South 431 496 32,100 420 Climbing Indianapolis Center
04:39PM 39.1228 -85.7600 174° South 425 489 32,900 420 Climbing Indianapolis Center
04:40PM 39.0086 -85.7597 180° South 411 473 33,000  Climbing Indianapolis Center
04:41PM 38.8939 -85.7475 175° South 414 476 33,000  Level Indianapolis Center
04:42PM 38.7772 -85.7306 174° South 423 487 33,000  Level Indianapolis Center
04:43PM 38.6364 -85.7036 172° South 426 490 33,000  Level Indianapolis Center
04:44PM 38.5164 -85.6797 171° South 430 495 33,000  Level Indianapolis Center
04:45PM 38.3972 -85.6586 172° South 428 493 33,000  Level Indianapolis Center
04:46PM 38.2764 -85.6406 173° South 433 498 33,000  Level Indianapolis Center
04:47PM 38.1550 -85.6175 172° South 437 503 33,000  Level Indianapolis Center
04:48PM 38.0328 -85.5947 172° South 441 507 33,000  Level Indianapolis Center
04:49PM 37.9108 -85.5717 172° South 440 506 33,000  Level Indianapolis Center
04:50PM 37.7897 -85.5503 172° South 436 502 33,000  Level Indianapolis Center
04:51PM 37.6686 -85.5292 172° South 436 502 33,000  Level Indianapolis Center
04:52PM 37.5292 -85.5056 172° South 430 495 33,000  Level Indianapolis Center
04:53PM 37.4089 -85.4844 172° South 434 499 33,000  Level Indianapolis Center
04:54PM 37.2894 -85.4628 172° South 434 499 33,000  Level Indianapolis Center
04:55PM 37.1689 -85.4422 172° South 435 501 33,000  Level Indianapolis Center
04:56PM 37.0492 -85.4197 171° South 435 501 33,000  Level Indianapolis Center
04:57PM 36.9164 -85.3983 173° South 433 498 33,000  Level Indianapolis Center
04:58PM 36.7967 -85.3772 172° South 435 501 33,000  Level Indianapolis Center
04:59PM 36.6767 -85.3569 172° South 433 498 33,000  Level Indianapolis Center
05:00PM 36.5581 -85.3361 172° South 432 497 33,000  Level Indianapolis Center
05:01PM 36.4378 -85.3158 172° South 434 499 33,000  Level Indianapolis Center
05:02PM 36.3192 -85.2953 172° South 433 498 33,000  Level Indianapolis Center
05:04PM 36.1781 -85.2714 172° South 429 494 33,000  Level Indianapolis Center
05:05PM 36.0586 -85.2536 173° South 442 509 33,000  Level Atlanta Center
05:06PM 35.9400 -85.2339 172° South 442 509 33,000  Level Atlanta Center
05:07PM 35.8192 -85.2142 172° South 442 509 33,000  Level Atlanta Center
05:08PM 35.6983 -85.1919 172° South 442 509 33,000  Level Atlanta Center
05:09PM 35.5794 -85.1700 171° South 442 509 33,000  Level Atlanta Center
05:10PM 35.4586 -85.1506 173° South 442 509 33,000  Level Atlanta Center
05:11PM 35.3358 -85.1308 173° South 442 509 33,000  Level Atlanta Center
05:12PM 35.2150 -85.1117 173° South 442 509 33,000  Level Atlanta Center
05:14PM 34.9733 -85.0706 172° South 442 509 33,000  Level Atlanta Center
05:15PM 34.8525 -85.0511 172° South 437 503 33,000  Level Atlanta Center
05:16PM 34.7294 -85.0319 173° South 443 510 33,000  Level Atlanta Center
05:17PM 34.6064 -85.0128 173° South 443 510 33,000  Level Atlanta Center
05:18PM 34.4836 -84.9914 172° South 443 510 33,000  Level Atlanta Center
05:19PM 34.3583 -84.9722 173° South 443 510 33,000  Level Atlanta Center
05:20PM 34.2356 -84.9508 172° South 443 510 33,000  Level Atlanta Center
05:21PM 34.1125 -84.9294 172° South 443 510 33,000  Level Atlanta Center
05:22PM 33.9894 -84.9006 169° South 448 516 33,000  Level Atlanta Center
05:23PM 33.8667 -84.8644 166° South 448 516 33,000  Level Atlanta Center
05:24PM 33.7436 -84.8358 169° South 448 516 33,000  Level Atlanta Center
05:25PM 33.6250 -84.8022 167° South 448 516 33,000  Level Atlanta Center
05:26PM 33.5081 -84.7764 170° South 448 516 33,000  Level Atlanta Center
05:27PM 33.3872 -84.7528 171° South 448 516 33,000  Level Atlanta Center
05:28PM 33.2497 -84.7144 167° South 454 522 33,000  Level Atlanta Center
05:29PM 33.1331 -84.6839 168° South 446 513 33,000  Level Atlanta Center
05:30PM 33.0142 -84.6556 169° South 441 507 33,000  Level Atlanta Center
05:31PM 32.8953 -84.6253 168° South 441 507 33,000  Level Atlanta Center
05:32PM 32.7744 -84.6022 171° South 436 502 33,000  Level Atlanta Center
05:33PM 32.6533 -84.5692 167° South 436 502 33,000  Level Atlanta Center
05:34PM 32.5325 -84.5364 167° South 441 507 33,000  Level Atlanta Center
05:35PM 32.4136 -84.5089 169° South 441 507 33,000  Level Atlanta Center
05:36PM 32.2947 -84.4786 168° South 441 507 33,000  Level Atlanta Center
05:37PM 32.1758 -84.4511 169° South 441 507 33,000  Level Atlanta Center
05:38PM 32.0569 -84.4236 169° South 441 507 33,000  Level Atlanta Center
05:38PM 32.0072 -84.4092 166° South 442 509 33,000  Level Jacksonville Center
05:39PM 31.8886 -84.3803 168° South 442 509 33,000  Level Jacksonville Center
05:40PM 31.7697 -84.3539 169° South 442 509 33,000  Level Jacksonville Center
05:41PM 31.6489 -84.3250 168° South 442 509 33,000  Level Jacksonville Center
05:42PM 31.5261 -84.2964 169° South 447 514 33,000  Level Jacksonville Center
05:43PM 31.4075 -84.2678 168° South 447 514 33,000  Level Jacksonville Center
05:44PM 31.2825 -84.2369 168° South 447 514 33,000  Level Jacksonville Center
05:45PM 31.1597 -84.2083 169° South 452 520 33,000  Level Jacksonville Center
05:46PM 31.0367 -84.1800 169° South 452 520 33,000  Level Jacksonville Center
05:47PM 30.9158 -84.1517 169° South 452 520 33,000  Level Jacksonville Center
05:48PM 30.7931 -84.1161 166° South 447 514 33,000  Level Jacksonville Center
05:49PM 30.6725 -84.0711 162° South 452 520 33,000  Level Jacksonville Center
05:50PM 30.5497 -84.0192 160° South 458 527 33,000  Level Jacksonville Center
05:51PM 30.4247 -83.9719 162° South 453 521 33,000  Level Jacksonville Center
05:52PM 30.3144 -83.9272 161° South 458 527 33,000  Level Jacksonville Center
05:53PM 30.1939 -83.8850 163° South 458 527 33,000  Level Jacksonville Center
05:54PM 30.0750 -83.8383 161° South 458 527 33,000  Level Jacksonville Center
05:55PM 29.9522 -83.7892 161° South 463 533 33,000 -180 Level Jacksonville Center
05:56PM 29.8314 -83.7450 162° South 463 533 32,700 -660 Descending Jacksonville Center
05:57PM 29.7086 -83.6983 162° South 463 533 31,700 -1,020 Descending Jacksonville Center
05:58PM 29.5878 -83.6519 162° South 463 533 30,700 -1,140 Descending Jacksonville Center
05:59PM 29.4628 -83.6058 162° South 463 533 29,500 -1,200 Descending Jacksonville Center
06:00PM 29.3400 -83.5572 161° South 463 533 28,300 -1,380 Descending Jacksonville Center
06:01PM 29.2192 -83.5089 161° South 463 533 26,800 -1,800 Descending Jacksonville Center
06:02PM 29.1025 -83.4414 153° Southeast 463 533 24,800 -1,440 Descending Jacksonville Center
06:03PM 28.9964 -83.3697 149° Southeast 456 525 24,000 -1,380 Descending Jacksonville Center
06:04PM 28.8839 -83.2956 150° Southeast 456 525 22,100 -2,280 Descending Jacksonville Center
06:05PM 28.7778 -83.2314 152° Southeast 451 519 19,500 -2,520 Descending Jacksonville Center
06:06PM 28.6714 -83.1669 152° Southeast 440 506 17,100 -2,400 Descending Jacksonville Center
06:07PM 28.5833 -83.1167 153° Southeast 407 468 15,000 -2,400 Descending Tampa TRACON
06:07PM 28.5667 -83.1000 139° Southeast 405 466 14,500 -1,800 Descending Tampa TRACON
06:08PM 28.4667 -83.0333 150° Southeast 382 440 12,900 -840 Descending Tampa TRACON
06:09PM 28.4000 -82.9833 147° Southeast 327 376 12,900 -300 Level Tampa TRACON
06:10PM 28.3167 -82.9333 152° Southeast 301 346 12,400 -1,080 Descending Tampa TRACON
06:11PM 28.2333 -82.9000 161° South 307 353 10,800 -1,920 Descending Tampa TRACON
06:12PM 28.1667 -82.8333 139° Southeast 295 339 8,600 -1,980 Descending Tampa TRACON
06:13PM 28.1167 -82.7833 139° Southeast 273 314 6,900 -1,800 Descending Tampa TRACON
06:14PM 28.0500 -82.7333 146° Southeast 232 267 4,900 -1,800 Descending Tampa TRACON
06:15PM 28.0500 -82.7667 270° West 202 232 3,400 -960 Descending Tampa TRACON
06:16PM 28.1000 -82.7833 344° North 211 243 3,000 -420 Descending Tampa TRACON
06:17PM 28.1000 -82.7333 90° East 191 220 2,600 -600 Descending Tampa TRACON
06:18PM 28.0500 -82.7167 164° South 200 230 1,900 -600 Descending Tampa TRACON
06:19PM 28.0000 -82.7000 164° South 190 219 1,400 -660 Descending Tampa TRACON
06:20PM 27.9500 -82.7000 180° South 137 158 600 -840 Descending Tampa TRACON